createdAt,value
2023-04-16T00:02:14.451Z,378.38
2023-04-16T00:04:41.960Z,1075.32
2023-04-16T00:07:09.322Z,130.43
2023-04-16T00:09:36.801Z,1793.25
2023-04-16T00:12:04.821Z,356.65
2023-04-16T00:14:32.427Z,145.27
2023-04-16T00:16:59.777Z,689.65
2023-04-16T00:19:27.093Z,1614.95
2023-04-16T00:21:54.393Z,458.42
2023-04-16T00:24:21.607Z,681.88
2023-04-16T00:26:48.829Z,1500.15
2023-04-16T00:29:16.118Z,857.17
2023-04-16T00:31:43.348Z,1473.25
2023-04-16T00:34:10.953Z,1618.22
2023-04-16T00:36:38.156Z,1408.55
2023-04-16T00:39:05.471Z,1598.38
2023-04-16T00:41:32.666Z,1801.72
2023-04-16T00:43:59.906Z,1446.15
2023-04-16T00:46:27.645Z,873.85
2023-04-16T00:48:55.882Z,966.55
2023-04-16T00:51:23.464Z,499.48
2023-04-16T00:53:51.533Z,265.33
2023-04-16T00:56:19.060Z,116.30
2023-04-16T00:58:46.272Z,129.43
2023-04-16T01:01:14.477Z,63.00
2023-04-16T01:03:46.085Z,85.63
2023-04-16T01:06:13.744Z,580.08
2023-04-16T01:08:41.073Z,817.10
2023-04-16T01:11:08.623Z,932.55
2023-04-16T01:13:39.358Z,578.25
2023-04-16T01:16:11.474Z,63.30
2023-04-16T01:18:39.211Z,589.75
2023-04-16T01:21:06.862Z,253.30
2023-04-16T01:23:34.186Z,819.30
2023-04-16T01:26:01.415Z,364.88
2023-04-16T01:28:28.653Z,990.95
2023-04-16T01:30:55.863Z,776.25
2023-04-16T01:33:23.093Z,1139.18
2023-04-16T01:35:50.270Z,957.45
2023-04-16T01:38:17.580Z,711.03
2023-04-16T01:40:44.928Z,225.27
2023-04-16T01:43:12.415Z,1315.85
2023-04-16T01:45:39.636Z,1305.53
2023-04-16T01:48:07.118Z,1392.28
2023-04-16T01:50:34.696Z,1522.80
2023-04-16T01:53:04.900Z,1610.40
2023-04-16T01:55:33.703Z,1705.28
2023-04-16T01:58:00.932Z,1939.53
2023-04-16T02:00:28.199Z,1779.93
2023-04-16T02:02:55.635Z,1635.75
2023-04-16T02:05:22.944Z,1425.30
2023-04-16T02:07:50.174Z,1593.65
2023-04-16T02:10:17.374Z,999.72
2023-04-16T02:12:44.539Z,650.85
2023-04-16T02:15:12.214Z,1358.18
2023-04-16T02:17:39.465Z,1363.55
2023-04-16T02:20:09.408Z,1632.35
2023-04-16T02:22:36.577Z,573.63
2023-04-16T02:25:04.048Z,143.30
2023-04-16T02:27:31.218Z,1148.90
2023-04-16T02:29:58.395Z,137.90
2023-04-16T02:32:25.713Z,1025.05
2023-04-16T02:34:52.947Z,986.97
2023-04-16T02:37:20.179Z,1239.32
2023-04-16T02:39:47.474Z,791.88
2023-04-16T02:42:16.040Z,1148.28
2023-04-16T02:44:43.270Z,139.18
2023-04-16T02:47:10.504Z,574.25
2023-04-16T02:49:37.724Z,1099.63
2023-04-16T02:52:04.972Z,1427.07
2023-04-16T02:54:32.157Z,1477.22
2023-04-16T02:56:59.332Z,1437.10
2023-04-16T02:59:26.961Z,1780.15
2023-04-16T03:01:54.294Z,1380.15
2023-04-16T03:04:21.596Z,1718.05
2023-04-16T03:06:48.899Z,1795.43
2023-04-16T03:09:16.166Z,1589.88
2023-04-16T03:11:43.351Z,1478.68
2023-04-16T03:14:10.603Z,1999.90
2023-04-16T03:16:37.774Z,1975.57
2023-04-16T03:19:04.954Z,1953.47
2023-04-16T03:21:32.265Z,1994.10
2023-04-16T03:23:59.443Z,1708.45
2023-04-16T03:26:27.048Z,1767.85
2023-04-16T03:28:54.271Z,1169.38
2023-04-16T03:31:23.745Z,1485.05
2023-04-16T03:33:51.731Z,1895.53
2023-04-16T03:36:19.155Z,1351.68
2023-04-16T03:38:46.473Z,1666.05
2023-04-16T03:41:13.700Z,1610.03
2023-04-16T03:43:41.105Z,1813.38
2023-04-16T03:46:08.307Z,256.63
2023-04-16T03:48:36.382Z,1870.85
2023-04-16T03:51:03.810Z,1586.53
2023-04-16T03:53:31.032Z,1200.50
2023-04-16T03:55:58.295Z,1287.97
2023-04-16T03:58:25.465Z,171.10
2023-04-16T04:00:55.433Z,1441.28
2023-04-16T04:03:22.758Z,1616.47
2023-04-16T04:05:50.453Z,1999.90
2023-04-16T04:08:17.636Z,1871.35
2023-04-16T04:10:45.832Z,1702.03
2023-04-16T04:13:13.387Z,1671.72
2023-04-16T04:15:40.610Z,1507.75
2023-04-16T04:18:07.884Z,1387.65
2023-04-16T04:20:34.705Z,846.33
2023-04-16T04:23:01.892Z,1212.97
2023-04-16T04:25:29.110Z,1889.20
2023-04-16T04:27:56.292Z,1996.18
2023-04-16T04:30:23.547Z,1953.95
2023-04-16T04:32:51.093Z,1927.18
2023-04-16T04:35:18.398Z,1658.05
2023-04-16T04:37:45.855Z,1761.30
2023-04-16T04:40:13.483Z,1857.75
2023-04-16T04:42:40.904Z,1793.40
2023-04-16T04:45:08.983Z,1330.45
2023-04-16T04:47:36.162Z,1627.13
2023-04-16T04:50:03.524Z,1677.07
2023-04-16T04:52:30.842Z,1808.88
2023-04-16T04:54:58.050Z,1445.55
2023-04-16T04:57:25.455Z,1999.90
2023-04-16T04:59:52.649Z,1654.38
2023-04-16T05:02:20.088Z,1625.80
2023-04-16T05:04:47.401Z,1707.78
2023-04-16T05:07:14.649Z,1920.93
2023-04-16T05:09:41.864Z,1665.90
2023-04-16T05:12:09.131Z,1695.75
2023-04-16T05:14:36.407Z,1405.90
2023-04-16T05:17:04.071Z,1552.20
2023-04-16T05:19:31.620Z,1825.72
2023-04-16T05:21:59.278Z,1852.10
2023-04-16T05:24:26.464Z,1617.07
2023-04-16T05:26:53.643Z,1999.90
2023-04-16T05:29:20.891Z,1781.30
2023-04-16T05:31:48.063Z,1999.90
2023-04-16T05:34:15.433Z,1999.90
2023-04-16T05:36:42.682Z,1944.70
2023-04-16T05:39:10.716Z,1999.90
2023-04-16T05:41:38.032Z,1999.90
2023-04-16T05:44:05.522Z,1999.90
2023-04-16T05:46:32.871Z,1999.90
2023-04-16T05:49:00.542Z,1999.90
2023-04-16T05:51:27.959Z,1999.90
2023-04-16T05:53:55.258Z,1805.57
2023-04-16T05:56:23.321Z,1999.90
2023-04-16T05:58:50.523Z,1897.55
2023-04-16T06:01:18.053Z,1995.72
2023-04-16T06:03:45.525Z,1489.28
2023-04-16T06:06:12.921Z,1999.90
2023-04-16T06:08:40.248Z,1999.90
2023-04-16T06:11:07.479Z,1999.90
2023-04-16T06:13:34.662Z,1807.65
2023-04-16T06:16:01.918Z,1810.97
2023-04-16T06:18:29.250Z,1756.88
2023-04-16T06:20:57.248Z,1758.93
2023-04-16T06:23:24.480Z,1669.43
2023-04-16T06:25:51.792Z,1427.57
2023-04-16T06:28:18.603Z,1644.13
2023-04-16T06:30:46.789Z,1827.20
2023-04-16T06:33:14.412Z,1744.07
2023-04-16T06:35:41.177Z,1699.30
2023-04-16T06:38:07.926Z,1850.07
2023-04-16T06:40:36.936Z,1999.90
2023-04-16T06:43:05.977Z,1541.25
2023-04-16T06:45:32.729Z,1600.90
2023-04-16T06:47:59.546Z,1443.20
2023-04-16T06:50:26.859Z,1929.50
2023-04-16T06:52:53.955Z,1930.35
2023-04-16T06:55:20.848Z,1357.88
2023-04-16T06:57:47.586Z,1702.47
2023-04-16T07:00:14.652Z,1288.55
2023-04-16T07:02:41.473Z,1532.55
2023-04-16T07:05:09.040Z,1468.28
2023-04-16T07:07:35.764Z,1622.20
2023-04-16T07:10:02.485Z,1459.00
2023-04-16T07:12:29.304Z,1882.00
2023-04-16T07:14:56.585Z,1203.22
2023-04-16T07:17:23.310Z,1646.50
2023-04-16T07:19:51.721Z,1914.35
2023-04-16T07:22:18.403Z,1736.88
2023-04-16T07:24:45.349Z,482.92
2023-04-16T07:27:13.049Z,197.45
2023-04-16T07:29:39.929Z,1114.90
2023-04-16T07:32:07.552Z,738.13
2023-04-16T07:34:34.331Z,1092.90
2023-04-16T07:37:01.202Z,323.63
2023-04-16T07:39:27.903Z,181.00
2023-04-16T07:41:54.831Z,175.75
2023-04-16T07:44:21.622Z,1599.57
2023-04-16T07:46:48.400Z,793.10
2023-04-16T07:49:15.556Z,878.33
2023-04-16T07:51:42.575Z,280.63
2023-04-16T07:54:10.230Z,600.97
2023-04-16T07:56:36.939Z,1524.45
2023-04-16T07:59:18.367Z,1384.28
2023-04-16T08:01:49.564Z,598.55
2023-04-16T08:04:20.647Z,451.10
2023-04-16T08:06:47.422Z,746.42
2023-04-16T08:09:14.148Z,419.45
2023-04-16T08:11:41.070Z,566.15
2023-04-16T08:14:08.222Z,190.18
2023-04-16T08:16:34.926Z,396.70
2023-04-16T08:19:01.655Z,348.70
2023-04-16T08:21:29.244Z,276.42
2023-04-16T08:23:56.266Z,320.75
2023-04-16T08:26:23.000Z,212.13
2023-04-16T08:28:49.738Z,250.70
2023-04-16T08:31:16.827Z,218.52
2023-04-16T08:33:43.781Z,199.43
2023-04-16T08:36:10.816Z,222.32
2023-04-16T08:38:37.553Z,250.63
2023-04-16T08:41:09.237Z,237.65
2023-04-16T08:43:39.390Z,246.45
2023-04-16T08:46:06.702Z,309.08
2023-04-16T08:48:34.988Z,218.70
2023-04-16T08:51:02.740Z,253.93
2023-04-16T08:53:43.080Z,305.58
2023-04-16T08:56:11.726Z,246.75
2023-04-16T08:58:40.238Z,211.30
2023-04-16T09:01:09.286Z,215.52
2023-04-16T09:03:36.961Z,228.98
2023-04-16T09:06:06.155Z,259.20
2023-04-16T09:08:35.687Z,255.43
2023-04-16T09:11:03.194Z,287.80
2023-04-16T09:13:31.764Z,316.55
2023-04-16T09:15:58.558Z,322.58
2023-04-16T09:18:25.667Z,258.15
2023-04-16T09:20:52.890Z,285.60
2023-04-16T09:23:19.648Z,452.02
2023-04-16T09:25:46.469Z,534.53
2023-04-16T09:28:13.220Z,543.10
2023-04-16T09:30:39.992Z,307.45
2023-04-16T09:33:23.459Z,350.80
2023-04-16T09:35:52.736Z,308.35
2023-04-16T09:38:20.673Z,309.63
2023-04-16T09:40:47.620Z,211.50
2023-04-16T09:43:17.203Z,276.88
2023-04-16T09:45:55.095Z,320.63
2023-04-16T09:48:33.368Z,309.98
2023-04-16T09:51:01.337Z,373.00
2023-04-16T09:53:30.970Z,456.33
2023-04-16T09:55:59.824Z,426.90
2023-04-16T09:58:27.081Z,439.60
2023-04-16T10:01:08.715Z,280.98
2023-04-16T10:03:38.288Z,324.40
2023-04-16T10:06:18.436Z,330.58
2023-04-16T10:08:50.394Z,287.00
2023-04-16T10:11:21.321Z,307.85
2023-04-16T10:13:49.093Z,265.92
2023-04-16T10:16:17.899Z,303.60
2023-04-16T10:18:46.408Z,410.38
2023-04-16T10:21:13.857Z,254.57
2023-04-16T10:23:41.907Z,258.95
2023-04-16T10:26:09.491Z,234.40
2023-04-16T10:28:37.047Z,314.85
2023-04-16T10:31:07.523Z,343.67
2023-04-16T10:33:39.286Z,361.23
2023-04-16T10:36:23.192Z,440.30
2023-04-16T10:38:52.467Z,260.63
2023-04-16T10:41:22.468Z,283.85
2023-04-16T10:43:50.950Z,336.25
2023-04-16T10:46:32.792Z,558.33
2023-04-16T10:49:19.109Z,286.05
2023-04-16T10:51:57.165Z,268.92
2023-04-16T10:54:30.068Z,329.30
2023-04-16T10:57:04.908Z,702.75
2023-04-16T10:59:35.250Z,765.83
2023-04-16T11:02:16.024Z,578.50
2023-04-16T11:04:48.326Z,640.92
2023-04-16T11:07:20.982Z,630.50
2023-04-16T11:10:04.291Z,1127.55
2023-04-16T11:12:46.458Z,1013.10
2023-04-16T11:15:21.349Z,855.03
2023-04-16T11:17:51.614Z,1184.20
2023-04-16T11:20:24.727Z,212.48
2023-04-16T11:22:56.800Z,1716.22
2023-04-16T11:25:30.625Z,1671.07
2023-04-16T11:27:59.148Z,1022.45
2023-04-16T11:30:34.823Z,377.73
2023-04-16T11:33:11.142Z,370.23
2023-04-16T11:35:41.516Z,350.27
2023-04-16T11:38:08.700Z,786.83
2023-04-16T11:40:36.303Z,765.35
2023-04-16T11:43:14.802Z,224.13
2023-04-16T11:46:12.880Z,379.38
2023-04-16T11:48:52.173Z,1167.40
2023-04-16T11:51:20.584Z,375.75
2023-04-16T11:53:53.119Z,836.40
2023-04-16T11:56:34.410Z,818.88
2023-04-16T11:59:11.784Z,1609.40
2023-04-16T12:01:42.230Z,641.28
2023-04-16T12:04:09.746Z,981.92
2023-04-16T12:06:36.788Z,1615.47
2023-04-16T12:09:26.015Z,999.72
2023-04-16T12:11:53.563Z,1495.47
2023-04-16T12:14:20.893Z,1549.75
2023-04-16T12:16:48.097Z,732.42
2023-04-16T12:19:16.085Z,394.92
2023-04-16T12:21:46.819Z,1148.38
2023-04-16T12:24:16.917Z,1289.97
2023-04-16T12:26:51.936Z,1415.22
2023-04-16T12:29:24.645Z,787.60
2023-04-16T12:31:53.808Z,1049.35
2023-04-16T12:34:21.796Z,1087.88
2023-04-16T12:37:12.217Z,798.08
2023-04-16T12:39:39.096Z,1195.15
2023-04-16T12:42:09.713Z,883.28
2023-04-16T12:44:36.698Z,1299.85
2023-04-16T12:47:05.412Z,1594.50
2023-04-16T12:49:32.445Z,1491.40
2023-04-16T12:51:59.185Z,1404.43
2023-04-16T12:54:29.029Z,172.40
2023-04-16T12:56:55.733Z,91.20
2023-04-16T12:59:23.442Z,171.02
2023-04-16T13:01:50.611Z,563.28
2023-04-16T13:04:19.136Z,1399.93
2023-04-16T13:06:46.336Z,1662.75
2023-04-16T13:09:13.424Z,1268.60
2023-04-16T13:11:40.245Z,1101.53
2023-04-16T13:14:07.454Z,1362.07
2023-04-16T13:16:34.254Z,1387.35
2023-04-16T13:19:01.340Z,1621.15
2023-04-16T13:21:28.266Z,1916.40
2023-04-16T13:23:55.192Z,1146.20
2023-04-16T13:26:22.022Z,1556.82
2023-04-16T13:28:48.781Z,1532.13
2023-04-16T13:31:18.552Z,1899.07
2023-04-16T13:33:45.364Z,1255.93
2023-04-16T13:36:12.526Z,1637.93
2023-04-16T13:38:39.526Z,1204.28
2023-04-16T13:41:06.435Z,1933.80
2023-04-16T13:43:33.167Z,1332.57
2023-04-16T13:46:00.947Z,1084.10
2023-04-16T13:48:28.640Z,1032.82
2023-04-16T13:50:56.085Z,1036.75
2023-04-16T13:53:22.913Z,1553.47
2023-04-16T13:55:49.896Z,1528.50
2023-04-16T13:58:16.752Z,485.77
2023-04-16T14:00:43.804Z,1201.43
2023-04-16T14:03:10.754Z,1113.43
2023-04-16T14:05:37.536Z,1378.47
2023-04-16T14:08:04.295Z,1192.15
2023-04-16T14:10:31.974Z,1789.75
2023-04-16T14:12:58.886Z,1640.47
2023-04-16T14:15:27.416Z,1574.97
2023-04-16T14:17:54.254Z,1733.07
2023-04-16T14:20:21.358Z,1492.28
2023-04-16T14:22:48.087Z,590.78
2023-04-16T14:25:14.952Z,1407.15
2023-04-16T14:27:41.731Z,1639.63
2023-04-16T14:30:09.201Z,1744.93
2023-04-16T14:32:36.649Z,1574.70
2023-04-16T14:35:04.180Z,1255.90
2023-04-16T14:37:31.208Z,1503.13
2023-04-16T14:39:58.040Z,1461.85
2023-04-16T14:42:24.869Z,1688.53
2023-04-16T14:44:52.484Z,1733.13
2023-04-16T14:47:19.325Z,1662.05
2023-04-16T14:49:46.420Z,1458.80
2023-04-16T14:52:13.277Z,1435.38
2023-04-16T14:54:40.033Z,1526.13
2023-04-16T14:57:06.814Z,1859.22
2023-04-16T14:59:33.664Z,1271.68
2023-04-16T15:02:00.975Z,1191.90
2023-04-16T15:04:28.100Z,976.45
2023-04-16T15:06:58.767Z,1356.13
2023-04-16T15:09:27.381Z,1353.32
2023-04-16T15:11:54.516Z,1793.43
2023-04-16T15:14:21.783Z,1788.70
2023-04-16T15:16:48.679Z,1571.97
2023-04-16T15:19:15.596Z,1558.32
2023-04-16T15:21:42.379Z,1945.00
2023-04-16T15:24:09.292Z,1865.10
2023-04-16T15:26:36.621Z,1984.03
2023-04-16T15:29:03.506Z,1691.72
2023-04-16T15:31:30.690Z,1816.10
2023-04-16T15:33:57.601Z,1842.63
2023-04-16T15:36:24.334Z,1446.85
2023-04-16T15:38:51.185Z,1999.90
2023-04-16T15:41:18.034Z,1399.68
2023-04-16T15:43:45.054Z,1569.63
2023-04-16T15:46:11.847Z,1601.25
2023-04-16T15:48:38.649Z,1560.78
2023-04-16T15:51:05.899Z,1935.93
2023-04-16T15:53:33.807Z,1583.15
2023-04-16T15:56:00.800Z,1999.90
2023-04-16T15:58:27.765Z,1664.15
2023-04-16T16:00:54.460Z,1999.90
2023-04-16T16:03:21.697Z,1999.90
2023-04-16T16:05:49.060Z,1822.72
2023-04-16T16:08:16.550Z,1999.90
2023-04-16T16:10:43.585Z,1928.40
2023-04-16T16:13:13.175Z,1695.15
2023-04-16T16:15:41.277Z,1999.90
2023-04-16T16:18:08.254Z,1880.35
2023-04-16T16:20:36.559Z,1999.90
2023-04-16T16:23:03.542Z,1999.90
2023-04-16T16:25:30.411Z,1999.90
2023-04-16T16:27:58.715Z,1999.90
2023-04-16T16:30:26.379Z,1638.85
2023-04-16T16:32:56.372Z,1720.57
2023-04-16T16:35:24.226Z,1807.18
2023-04-16T16:37:55.388Z,1153.32
2023-04-16T16:40:22.193Z,1565.47
2023-04-16T16:42:48.988Z,1742.63
2023-04-16T16:45:16.065Z,1900.03
2023-04-16T16:47:42.823Z,1906.10
2023-04-16T16:50:11.423Z,1999.90
2023-04-16T16:52:38.897Z,1999.90
2023-04-16T16:55:08.690Z,1999.90
2023-04-16T16:57:35.446Z,1999.90
2023-04-16T17:00:02.284Z,1525.97
2023-04-16T17:02:29.161Z,1025.43
2023-04-16T17:04:58.888Z,532.35
2023-04-16T17:07:25.750Z,531.13
2023-04-16T17:09:52.540Z,309.55
2023-04-16T17:12:19.317Z,778.15
2023-04-16T17:14:51.179Z,372.95
2023-04-16T17:17:21.999Z,469.27
2023-04-16T17:19:48.986Z,1570.97
2023-04-16T17:22:16.268Z,975.25
2023-04-16T17:24:43.354Z,854.05
2023-04-16T17:27:10.108Z,734.03
2023-04-16T17:29:36.868Z,452.17
2023-04-16T17:32:04.497Z,301.67
2023-04-16T17:34:31.236Z,366.00
2023-04-16T17:36:58.024Z,287.45
2023-04-16T17:39:24.854Z,314.55
2023-04-16T17:41:54.658Z,332.45
2023-04-16T17:44:22.989Z,327.42
2023-04-16T17:46:49.759Z,350.10
2023-04-16T17:49:16.799Z,423.02
2023-04-16T17:51:44.538Z,579.10
2023-04-16T17:54:11.896Z,1535.20
2023-04-16T17:56:38.819Z,1576.32
2023-04-16T17:59:05.668Z,633.40
2023-04-16T18:01:32.451Z,1873.57
2023-04-16T18:03:59.431Z,657.70
2023-04-16T18:06:27.608Z,1673.65
2023-04-16T18:08:54.311Z,1941.72
2023-04-16T18:11:21.149Z,712.20
2023-04-16T18:13:48.441Z,632.47
2023-04-16T18:16:18.510Z,1313.20
2023-04-16T18:18:45.906Z,1099.85
2023-04-16T18:21:13.271Z,505.90
2023-04-16T18:23:40.068Z,572.38
2023-04-16T18:26:08.506Z,320.58
2023-04-16T18:28:36.199Z,469.17
2023-04-16T18:31:05.524Z,754.20
2023-04-16T18:36:02.776Z,574.78
2023-04-16T18:38:31.257Z,470.88
2023-04-16T18:40:58.510Z,451.85
2023-04-16T18:43:25.418Z,334.60
2023-04-16T18:45:52.183Z,349.15
2023-04-16T18:48:18.952Z,360.05
2023-04-16T18:50:45.919Z,284.58
2023-04-16T18:53:12.832Z,268.02
2023-04-16T18:55:39.597Z,321.77
2023-04-16T18:58:06.330Z,286.00
2023-04-16T19:00:33.079Z,319.17
2023-04-16T19:03:00.081Z,316.55
2023-04-16T19:05:26.879Z,288.00
2023-04-16T19:07:54.229Z,382.38
2023-04-16T19:10:21.032Z,343.27
2023-04-16T19:12:47.814Z,292.63
2023-04-16T19:15:14.751Z,336.80
2023-04-16T19:17:42.077Z,304.27
2023-04-16T19:20:11.741Z,287.58
2023-04-16T19:22:38.628Z,318.88
2023-04-16T19:25:07.219Z,293.83
2023-04-16T19:27:34.147Z,325.30
2023-04-16T19:30:00.850Z,333.90
2023-04-16T19:32:27.597Z,549.15
2023-04-16T19:34:54.490Z,302.42
2023-04-16T19:37:21.173Z,258.70
2023-04-16T19:39:47.920Z,253.88
2023-04-16T19:42:14.690Z,295.33
2023-04-16T19:44:41.502Z,281.83
2023-04-16T19:47:08.402Z,285.73
2023-04-16T19:49:35.286Z,296.98
2023-04-16T19:52:02.169Z,303.55
2023-04-16T19:54:29.160Z,265.90
2023-04-16T19:56:57.026Z,271.75
2023-04-16T19:59:25.062Z,274.98
2023-04-16T20:01:51.780Z,320.88
2023-04-16T20:04:18.647Z,220.25
2023-04-16T20:06:45.544Z,252.48
2023-04-16T20:09:12.618Z,223.57
2023-04-16T20:11:39.558Z,226.80
2023-04-16T20:14:06.253Z,242.52
2023-04-16T20:16:33.707Z,217.27
2023-04-16T20:19:04.047Z,276.20
2023-04-16T20:21:32.235Z,335.73
2023-04-16T20:24:01.867Z,273.88
2023-04-16T20:26:33.943Z,248.32
2023-04-16T20:29:01.062Z,285.17
2023-04-16T20:31:28.182Z,234.40
2023-04-16T20:33:55.518Z,254.18
2023-04-16T20:36:22.327Z,288.23
2023-04-16T20:38:51.980Z,284.27
2023-04-16T20:41:22.687Z,242.70
2023-04-16T20:43:50.271Z,240.65
2023-04-16T20:46:17.661Z,251.05
2023-04-16T20:48:44.726Z,189.10
2023-04-16T20:51:11.555Z,231.88
2023-04-16T20:53:38.900Z,245.60
2023-04-16T20:56:06.888Z,272.83
2023-04-16T20:58:33.653Z,219.43
2023-04-16T21:01:00.711Z,228.05
2023-04-16T21:03:27.721Z,223.73
2023-04-16T21:05:55.788Z,242.18
2023-04-16T21:08:24.135Z,201.98
2023-04-16T21:10:51.284Z,232.63
2023-04-16T21:13:18.870Z,243.00
2023-04-16T21:15:46.187Z,265.25
2023-04-16T21:18:13.277Z,236.40
2023-04-16T21:20:40.153Z,246.90
2023-04-16T21:23:06.926Z,240.75
2023-04-16T21:25:33.767Z,329.77
2023-04-16T21:28:00.702Z,248.98
2023-04-16T21:30:27.502Z,269.38
2023-04-16T21:32:54.834Z,254.93
2023-04-16T21:35:21.674Z,277.35
2023-04-16T21:37:48.398Z,298.20
2023-04-16T21:40:15.204Z,317.55
2023-04-16T21:42:42.408Z,246.10
2023-04-16T21:45:10.381Z,293.55
2023-04-16T21:47:37.945Z,332.50
2023-04-16T21:50:05.796Z,244.02
2023-04-16T21:52:33.054Z,311.35
2023-04-16T21:55:02.884Z,287.27
2023-04-16T21:57:29.688Z,266.98
2023-04-16T21:59:56.417Z,294.02
2023-04-16T22:02:23.473Z,258.40
2023-04-16T22:04:50.549Z,256.67
2023-04-16T22:07:20.624Z,291.92
2023-04-16T22:09:47.357Z,325.35
2023-04-16T22:12:14.137Z,325.20
2023-04-16T22:14:49.159Z,357.90
2023-04-16T22:17:23.541Z,590.40
2023-04-16T22:19:50.825Z,952.67
2023-04-16T22:22:18.486Z,1090.22
2023-04-16T22:24:46.289Z,345.90
2023-04-16T22:27:13.039Z,339.40
2023-04-16T22:29:39.746Z,504.23
2023-04-16T22:32:06.929Z,335.60
2023-04-16T22:34:33.798Z,315.08
2023-04-16T22:37:02.977Z,436.55
2023-04-16T22:39:31.540Z,332.92
2023-04-16T22:41:58.364Z,342.02
2023-04-16T22:44:25.235Z,361.58
2023-04-16T22:46:52.251Z,266.42
2023-04-16T22:49:19.144Z,361.90
2023-04-16T22:51:46.251Z,341.02
2023-04-16T22:54:14.050Z,357.08
2023-04-16T22:56:41.068Z,454.50
2023-04-16T22:59:08.048Z,655.90
2023-04-16T23:01:35.536Z,1999.90
2023-04-16T23:04:02.513Z,1999.90
2023-04-16T23:06:29.246Z,1999.90
2023-04-16T23:08:55.960Z,1999.90
2023-04-16T23:11:23.240Z,1575.55
2023-04-16T23:13:50.008Z,1263.53
2023-04-16T23:16:16.912Z,706.08
2023-04-16T23:18:43.654Z,1534.90
2023-04-16T23:21:10.476Z,1999.90
2023-04-16T23:23:37.228Z,1974.50
2023-04-16T23:26:04.287Z,1497.15
2023-04-16T23:28:31.038Z,394.05
2023-04-16T23:30:57.875Z,884.65
2023-04-16T23:33:24.668Z,416.67
2023-04-16T23:35:51.460Z,708.85
2023-04-16T23:38:18.358Z,632.63
2023-04-16T23:40:45.262Z,744.70
2023-04-16T23:43:12.051Z,1999.90
2023-04-16T23:45:38.908Z,1993.32
2023-04-16T23:48:06.228Z,1757.68
2023-04-16T23:50:33.053Z,1972.20
2023-04-16T23:52:59.812Z,1999.90
2023-04-16T23:55:26.575Z,1999.90
2023-04-16T23:57:53.376Z,1999.90
